Lone Rock, WI (53556)

01:46 AM CDT die 30o March, anno 2017 (GMT -0500)
Artificer | | Change Station

Elev 1000 ft 43.13 °N, 90.29 °W | Updated 1 minute ago

Light Rain
Pluvia Levis
37.4 °F
Feels Like 33 °F
N
5.8
Ventus Variabilis Ventus from Auster
Gusts 7.8 mph

Hodie
High -- | Low -- °F
--% Chance of Precip.
Yesterday
High -- | Low -- °F
Precip. -- in
Pressio 30.01 in
Visibilitas 8.0 milia passuum
Clouds Plerumque Nubila 1500 ft
Aequaliter Nubila 2200 ft
Frigus Venti 33 °F
Frigus in quo Ros apparet 37 °F
Umor 97%
Rainfall 0.00 in
Snow Depth Not available.
6:45 AM 7:25 PM
Waxing Crescent, 7% visible
SPECI KLNR 300639Z AUTO 07011G19KT 8SM -RA BKN015 OVC022 04/02 A3001 RMK AO2 RAB27 P0000 T00390017
Pressio 30.01 in
Visibilitas 8.0 milia passuum
Clouds Plerumque Nubila 1500 ft
Aequaliter Nubila 2200 ft
Frigus Venti 33 °F
Frigus in quo Ros apparet 37 °F
Umor 97%
Rainfall 0.00 in
Snow Depth Not available.
6:45 AM 7:25 PM
Waxing Crescent, 7% visible
SPECI KLNR 300639Z AUTO 07011G19KT 8SM -RA BKN015 OVC022 04/02 A3001 RMK AO2 RAB27 P0000 T00390017

Get Severe Weather Alerts

Thanks for signing up!

Be on the lookout for a verification email in your inbox.

You'll start receiving the daily forecast at 8 AM.

×

10-Day Weather Forecast

Almanac

Astronomy

Mar. 30, 2017 Rise Set
Actual Time
Civil Twilight
Nautical Twilight
Astronomical Twilight
Moon
Length Of Visible Light
Length of Day
Tomorrow will be .
, % of the Moon is Illuminated

Today's Extremes

State Highs State Lows

Community

WunderPhotos

Upload Photos

1,962,540 photos uploaded!

WunderBlog® & News

Nearby

Air Quality

  Air Quality AQ Index Pollutant
Not available.

Snow Depth

Station Depth Elevation

Earthquake Activity

City Distance Mag. Time & Date
Minimum magnitude displayed is 2.5.

Earthquake Activity

City Distance Mag. Time & Date
Minimum magnitude displayed is 2.5.

Coastal Water Temperatures

Locus Calor

Stations

Nearby Weather Stations

Station Location Temp Frigus Venti Frigus in quo Ros apparet Umor Ventus Precip. Elev Renovata Type
                   

Watches & Warnings

There are currently no watches in effect.